Time;durP1;ratioP1;P1;durP2;ratioP2;P2;SDS_P1;SDS_P2;PMS_P1;PMS_P2;Temp;Humidity;BMP_temperature;BMP_pressure;BME280_temperature;BME280_humidity;BME280_pressure;Samples;Min_cycle;Max_cycle;Signal;HPM_P1;HPM_P2
2023/03/04 00:02:26;;;;;;;0.40;0.00;;;;;;;1.52;45.44;100280.78;4965328;28;20479;-79
2023/03/04 00:04:54;;;;;;;0.20;0.03;;;;;;;1.50;44.87;100277.31;4958028;28;20057;-79
2023/03/04 00:07:21;;;;;;;2.47;0.10;;;;;;;1.49;44.86;100285.03;4955241;28;20053;-79
2023/03/04 00:09:48;;;;;;;0.95;0.00;;;;;;;1.43;45.46;100267.81;4965634;28;20888;-79
2023/03/04 00:12:15;;;;;;;0.85;0.00;;;;;;;1.40;44.58;100266.94;4965688;28;20137;-78
2023/03/04 00:14:42;;;;;;;0.30;0.00;;;;;;;1.42;44.78;100281.50;4957255;28;20558;-79
2023/03/04 00:17:09;;;;;;;0.95;0.00;;;;;;;1.36;44.82;100271.16;4970327;28;20047;-79
2023/03/04 00:19:35;;;;;;;0.73;0.10;;;;;;;1.32;44.74;100269.41;4964595;28;20046;-78
2023/03/04 00:22:04;;;;;;;0.55;0.00;;;;;;;1.33;44.61;100286.56;4957284;28;20055;-79
2023/03/04 00:24:32;;;;;;;0.10;0.00;;;;;;;1.30;45.27;100277.09;4967774;28;20061;-79
2023/03/04 00:26:59;;;;;;;0.73;0.00;;;;;;;1.30;44.99;100281.38;4967220;28;20529;-78
2023/03/04 00:29:26;;;;;;;1.67;0.10;;;;;;;1.28;44.98;100285.63;4963613;28;20411;-79
2023/03/04 00:31:53;;;;;;;0.85;0.00;;;;;;;1.26;44.42;100300.22;4963739;28;20134;-78
2023/03/04 00:34:20;;;;;;;0.52;0.05;;;;;;;1.13;44.65;100268.31;4965551;28;20051;-78
2023/03/04 00:36:47;;;;;;;2.88;0.00;;;;;;;1.22;44.35;100286.44;4963260;28;20051;-79
2023/03/04 00:39:15;;;;;;;0.30;0.00;;;;;;;1.18;44.15;100278.69;4956130;28;20488;-79
2023/03/04 00:41:42;;;;;;;0.80;0.10;;;;;;;1.17;45.20;100288.13;4961834;28;20118;-79
2023/03/04 00:44:09;;;;;;;0.00;0.00;;;;;;;1.15;44.81;100271.78;4966992;28;20479;-79
2023/03/04 00:46:36;;;;;;;2.05;0.00;;;;;;;1.12;44.82;100293.19;4960692;28;20751;-79
2023/03/04 00:49:03;;;;;;;12.95;0.00;;;;;;;1.11;44.93;100286.34;4962059;28;20049;-79
2023/03/04 00:51:30;;;;;;;0.15;0.00;;;;;;;1.09;44.55;100282.88;4962124;28;20059;-79
2023/03/04 00:53:57;;;;;;;1.00;0.00;;;;;;;1.04;44.21;100273.38;4968534;28;20050;-79
2023/03/04 00:56:25;;;;;;;1.13;0.00;;;;;;;1.04;44.72;100284.50;4958979;28;20047;-79
2023/03/04 00:58:52;;;;;;;0.45;0.00;;;;;;;1.03;44.48;100282.78;4959561;28;20054;-77
2023/03/04 01:01:19;;;;;;;0.17;0.00;;;;;;;1.02;44.68;100285.34;4962890;28;20046;-79
2023/03/04 01:03:46;;;;;;;0.40;0.00;;;;;;;0.93;44.89;100272.38;4960855;28;20051;-79
2023/03/04 01:06:13;;;;;;;0.20;0.00;;;;;;;0.90;43.99;100280.91;4966058;28;20121;-79
2023/03/04 01:08:40;;;;;;;1.48;0.00;;;;;;;0.94;44.56;100282.69;4966221;28;20130;-79
2023/03/04 01:11:07;;;;;;;0.00;0.00;;;;;;;0.90;44.87;100270.63;4955545;28;20057;-78
2023/03/04 01:13:35;;;;;;;0.45;0.00;;;;;;;0.90;44.27;100286.91;4962196;28;20701;-77
2023/03/04 01:16:03;;;;;;;3.35;0.00;;;;;;;0.88;44.53;100274.88;4957985;28;20418;-79
2023/03/04 01:18:31;;;;;;;0.00;0.00;;;;;;;0.81;44.39;100275.66;4961713;28;20051;-79
2023/03/04 01:20:58;;;;;;;4.03;0.00;;;;;;;0.82;44.38;100290.22;4954859;28;20047;-79
2023/03/04 01:23:25;;;;;;;0.45;0.00;;;;;;;0.82;44.73;100290.22;4961450;28;20423;-79
2023/03/04 01:25:52;;;;;;;0.10;0.00;;;;;;;0.71;44.23;100269.50;4965555;28;20050;-79
2023/03/04 01:28:19;;;;;;;0.20;0.00;;;;;;;0.74;43.73;100279.88;4967095;28;20054;-79
2023/03/04 01:30:47;;;;;;;0.10;0.00;;;;;;;0.71;44.68;100294.34;4965598;28;20046;-79
2023/03/04 01:33:14;;;;;;;0.43;0.00;;;;;;;0.72;44.25;100288.38;4967771;28;20053;-79
2023/03/04 01:35:41;;;;;;;0.10;0.00;;;;;;;0.67;44.42;100284.03;4964466;28;20051;-78
2023/03/04 01:38:08;;;;;;;0.13;0.00;;;;;;;0.69;44.87;100291.78;4969893;28;20047;-79
2023/03/04 01:40:35;;;;;;;0.80;0.05;;;;;;;0.64;44.34;100285.72;4965441;28;20749;-79
2023/03/04 01:43:02;;;;;;;0.10;0.00;;;;;;;0.64;44.56;100294.28;4969051;28;20057;-79
2023/03/04 01:45:32;;;;;;;0.47;0.00;;;;;;;0.62;44.64;100300.22;4970393;28;20070;-79
2023/03/04 01:48:00;;;;;;;0.68;0.00;;;;;;;0.60;44.79;100302.81;4960968;28;21067;-78
2023/03/04 01:50:31;;;;;;;0.13;0.00;;;;;;;0.58;44.59;100293.34;4972745;28;20038;-79
2023/03/04 01:52:58;;;;;;;0.40;0.20;;;;;;;0.51;43.91;100278.66;4961207;28;20043;-79
2023/03/04 01:55:25;;;;;;;0.65;0.00;;;;;;;0.54;44.14;100286.41;4962287;28;20050;-79
2023/03/04 01:57:53;;;;;;;0.10;0.00;;;;;;;0.52;44.54;100291.53;4969049;28;20053;-79
2023/03/04 02:00:29;;;;;;;0.32;0.03;;;;;;;0.50;44.27;100280.38;4966940;28;20055;-79
2023/03/04 02:03:02;;;;;;;0.45;0.00;;;;;;;0.47;44.02;100279.47;4964779;28;20050;-79
2023/03/04 02:05:29;;;;;;;0.47;0.10;;;;;;;0.44;44.85;100278.56;4964477;28;20058;-79
2023/03/04 02:07:58;;;;;;;1.30;0.00;;;;;;;0.43;44.65;100274.28;4969174;28;20059;-79
2023/03/04 02:10:25;;;;;;;0.30;0.00;;;;;;;0.42;45.15;100274.25;4963509;28;20499;-79
2023/03/04 02:12:53;;;;;;;1.10;0.00;;;;;;;0.32;44.77;100251.84;4967308;28;20054;-78
2023/03/04 02:15:20;;;;;;;0.50;0.00;;;;;;;0.38;44.80;100262.22;4953062;28;20445;-78
2023/03/04 02:17:49;;;;;;;0.08;0.00;;;;;;;0.33;44.09;100262.13;4973690;28;20122;-79
2023/03/04 02:20:31;;;;;;;0.77;0.00;;;;;;;0.35;45.01;100269.88;4966444;28;20051;-79
2023/03/04 02:23:07;;;;;;;2.80;0.05;;;;;;;0.32;44.90;100267.25;4962095;28;20066;-79
2023/03/04 02:25:42;;;;;;;1.38;0.00;;;;;;;0.25;44.52;100252.59;4961260;28;20043;-78
2023/03/04 02:28:11;;;;;;;;;;;;;;;0.27;44.75;100271.47;4967099;28;20050;-78
2023/03/04 02:30:38;;;;;;;0.30;0.00;;;;;;;0.25;44.87;100273.13;4961544;28;19973;-78
2023/03/04 02:33:04;;;;;;;0.00;0.00;;;;;;;0.21;44.45;100257.69;4956900;28;20058;-79
2023/03/04 02:35:32;;;;;;;0.00;0.00;;;;;;;0.20;43.98;100266.25;4955933;28;20058;-78
2023/03/04 02:37:59;;;;;;;1.25;0.00;;;;;;;0.16;44.21;100269.59;4963231;28;20042;-78
2023/03/04 02:40:31;;;;;;;4.03;0.05;;;;;;;0.15;44.16;100262.72;4967360;28;20057;-78
2023/03/04 02:42:59;;;;;;;0.00;0.00;;;;;;;0.13;44.32;100264.41;4964155;28;20053;-79
2023/03/04 02:45:36;;;;;;;0.45;0.00;;;;;;;0.10;43.76;100266.91;4965521;28;20491;-78
2023/03/04 02:48:04;;;;;;;0.43;0.00;;;;;;;0.08;43.16;100266.03;4964532;28;20059;-78
2023/03/04 02:50:35;;;;;;;0.90;0.20;;;;;;;0.07;43.52;100284.00;4963432;28;20058;-78
2023/03/04 02:53:02;;;;;;;0.38;0.00;;;;;;;0.05;43.84;100265.13;4963561;28;20063;-79
2023/03/04 02:55:31;;;;;;;0.57;0.00;;;;;;;0.02;43.74;100276.19;4970399;28;20047;-79
2023/03/04 02:57:58;;;;;;;0.20;0.10;;;;;;;-0.01;43.42;100259.03;4967901;28;20054;-78
2023/03/04 03:00:25;;;;;;;0.08;0.00;;;;;;;-0.01;43.70;100278.72;4974949;28;20043;-79
2023/03/04 03:02:55;;;;;;;0.35;0.00;;;;;;;-0.06;43.14;100280.34;4965877;28;20051;-79
2023/03/04 03:05:24;;;;;;;1.20;0.17;;;;;;;-0.05;43.14;100271.81;4970211;28;20047;-79
2023/03/04 03:07:50;;;;;;;0.20;0.00;;;;;;;-0.06;43.57;100277.78;4975123;28;20055;-79
2023/03/04 03:10:18;;;;;;;2.63;0.00;;;;;;;-0.08;43.35;100274.34;4970191;28;20055;-78
2023/03/04 03:12:45;;;;;;;5.68;0.15;;;;;;;-0.10;42.98;100265.75;4965370;28;20062;-78
2023/03/04 03:15:12;;;;;;;0.10;0.00;;;;;;;-0.10;43.59;100266.59;4962339;28;20043;-78
2023/03/04 03:17:39;;;;;;;1.15;0.00;;;;;;;-0.11;42.35;100254.63;4970264;28;20515;-78
2023/03/04 03:20:10;;;;;;;3.63;0.00;;;;;;;-0.15;42.50;100259.66;4963826;28;20491;-79
2023/03/04 03:22:38;;;;;;;0.85;0.00;;;;;;;-0.17;42.11;100258.75;4972460;28;20521;-79
2023/03/04 03:25:05;;;;;;;0.15;0.00;;;;;;;-0.18;42.09;100251.91;4966138;28;20061;-74
2023/03/04 03:27:32;;;;;;;2.53;0.00;;;;;;;-0.38;42.27;100228.47;4965773;28;20049;-74
2023/03/04 03:29:59;;;;;;;2.75;0.13;;;;;;;-0.29;42.84;100244.88;4958848;28;20047;-74
2023/03/04 03:32:26;;;;;;;1.38;0.00;;;;;;;-0.24;42.04;100250.09;4963137;28;20137;-74
2023/03/04 03:34:53;;;;;;;0.22;0.00;;;;;;;-0.29;41.76;100252.59;4962362;28;20043;-74
2023/03/04 03:37:22;;;;;;;0.15;0.00;;;;;;;-0.27;42.12;100278.28;4963735;28;20082;-74
2023/03/04 03:39:49;;;;;;;4.43;0.00;;;;;;;-0.29;40.56;100290.22;4966035;28;20055;-74
2023/03/04 03:42:17;;;;;;;0.70;0.00;;;;;;;-0.33;41.22;100262.78;4963787;28;20059;-77
2023/03/04 03:44:45;;;;;;;0.08;0.00;;;;;;;-0.36;40.59;100278.13;4961331;28;20082;-74
2023/03/04 03:47:12;;;;;;;0.28;0.00;;;;;;;-0.38;40.63;100279.81;4962571;28;20057;-73
2023/03/04 03:49:39;;;;;;;0.00;0.00;;;;;;;-0.40;41.46;100272.06;4962798;28;20055;-73
2023/03/04 03:52:07;;;;;;;0.80;0.00;;;;;;;-0.47;40.77;100276.22;4966075;28;20078;-73
2023/03/04 03:54:35;;;;;;;0.10;0.00;;;;;;;-0.44;40.62;100267.72;4963043;28;20043;-73
2023/03/04 03:57:02;;;;;;;1.63;0.10;;;;;;;-0.45;40.85;100278.84;4962424;28;20057;-73
2023/03/04 03:59:29;;;;;;;1.23;0.13;;;;;;;-0.50;40.57;100280.44;4960616;28;20076;-73
2023/03/04 04:01:56;;;;;;;0.43;0.00;;;;;;;-0.60;40.83;100258.00;4964380;28;20138;-74
2023/03/04 04:04:23;;;;;;;1.98;0.10;;;;;;;-0.54;40.55;100287.22;4960874;28;20046;-74
2023/03/04 04:06:50;;;;;;;0.22;0.00;;;;;;;-0.55;41.03;100266.66;4959278;28;20047;-73
2023/03/04 04:09:17;;;;;;;0.55;0.00;;;;;;;-0.69;40.64;100287.78;4964349;28;20050;-73
2023/03/04 04:11:45;;;;;;;0.68;0.00;;;;;;;-0.63;39.90;100269.06;4958517;28;20423;-73
2023/03/04 04:14:13;;;;;;;1.55;0.00;;;;;;;-0.66;40.61;100263.03;4964347;28;20054;-73
2023/03/04 04:16:40;;;;;;;0.00;0.00;;;;;;;-0.66;40.45;100275.84;4959339;28;20051;-73
2023/03/04 04:19:07;;;;;;;0.68;0.00;;;;;;;-0.71;40.58;100271.53;4964967;28;20130;-73
2023/03/04 04:21:34;;;;;;;0.22;0.00;;;;;;;-0.73;40.86;100269.75;4962752;28;20488;-73
2023/03/04 04:24:01;;;;;;;0.10;0.10;;;;;;;-0.73;40.89;100262.94;4959070;28;20131;-73
2023/03/04 04:26:28;;;;;;;0.45;0.00;;;;;;;-0.74;40.98;100270.56;4961604;28;20050;-73
2023/03/04 04:28:56;;;;;;;0.20;0.00;;;;;;;-0.77;40.35;100280.78;4961038;28;20777;-73
2023/03/04 04:31:23;;;;;;;0.00;0.00;;;;;;;-0.84;40.53;100276.38;4960778;28;20046;-73
2023/03/04 04:33:50;;;;;;;0.08;0.00;;;;;;;-0.84;40.20;100274.66;4960931;28;20061;-73
2023/03/04 04:36:16;;;;;;;3.20;0.30;;;;;;;-0.88;39.96;100278.03;4960903;28;20502;-73
2023/03/04 04:38:44;;;;;;;0.52;0.00;;;;;;;-0.94;40.23;100267.63;4965387;28;20053;-73
2023/03/04 04:41:20;;;;;;;1.05;0.10;;;;;;;-0.89;40.08;100286.53;4964128;28;20047;-73
2023/03/04 04:43:47;;;;;;;1.45;0.00;;;;;;;-0.90;40.02;100300.19;4959103;28;20046;-74
2023/03/04 04:46:16;;;;;;;1.33;0.00;;;;;;;-0.93;40.31;100295.88;4961245;28;20047;-74
2023/03/04 04:48:44;;;;;;;3.03;0.00;;;;;;;-0.99;39.45;100285.50;4960038;28;20054;-74
2023/03/04 04:51:11;;;;;;;0.35;0.00;;;;;;;-0.97;40.12;100298.31;4961398;28;20046;-74
2023/03/04 04:53:38;;;;;;;2.03;0.00;;;;;;;-1.06;40.05;100282.75;4959853;28;20042;-73
2023/03/04 04:56:10;;;;;;;0.60;0.10;;;;;;;-1.02;39.76;100299.94;4959264;28;20058;-73
2023/03/04 04:58:37;;;;;;;1.15;0.00;;;;;;;-1.05;40.09;100305.00;4962027;28;20043;-74
2023/03/04 05:01:05;;;;;;;0.73;0.00;;;;;;;-1.06;40.38;100310.97;4961701;28;20046;-73
2023/03/04 05:03:34;;;;;;;4.68;0.20;;;;;;;-1.09;39.90;100310.91;4962995;28;20061;-73
2023/03/04 05:06:01;;;;;;;2.20;0.00;;;;;;;-1.13;39.97;100312.53;4958655;28;20134;-73
2023/03/04 05:08:28;;;;;;;1.60;0.10;;;;;;;-1.13;40.19;100320.22;4960532;28;20059;-73
2023/03/04 05:10:55;;;;;;;0.80;0.00;;;;;;;-1.16;39.88;100328.72;4955252;28;20050;-73
2023/03/04 05:13:22;;;;;;;1.75;0.08;;;;;;;-1.19;40.33;100315.84;4961580;28;20055;-74
2023/03/04 05:15:51;;;;;;;0.03;0.00;;;;;;;-1.20;40.41;100306.41;4961287;28;20051;-73
2023/03/04 05:18:18;;;;;;;1.95;0.00;;;;;;;-1.22;40.22;100308.09;4958539;28;20480;-73
2023/03/04 05:20:50;;;;;;;0.00;0.00;;;;;;;-1.24;40.40;100314.88;4963970;28;20047;-73
2023/03/04 05:23:17;;;;;;;0.45;0.08;;;;;;;-1.27;39.86;100335.31;4961770;28;20050;-73
2023/03/04 05:25:44;;;;;;;0.25;0.00;;;;;;;-1.29;40.37;100323.28;4959632;28;20138;-73
2023/03/04 05:28:12;;;;;;;1.38;0.00;;;;;;;-1.34;39.61;100333.41;4962873;28;20503;-73
2023/03/04 05:30:39;;;;;;;1.00;0.00;;;;;;;-1.40;40.45;100323.88;4957696;28;20046;-74
2023/03/04 05:33:07;;;;;;;1.45;0.10;;;;;;;-1.33;39.92;100345.41;4959276;28;20067;-73
2023/03/04 05:35:34;;;;;;;0.35;0.00;;;;;;;-1.34;39.73;100327.44;4958154;28;20047;-75
2023/03/04 05:38:03;;;;;;;0.93;0.00;;;;;;;-1.37;39.62;100333.34;4962885;28;20043;-74
2023/03/04 05:40:29;;;;;;;1.15;0.03;;;;;;;-1.41;39.82;100359.75;4960020;28;20043;-74
2023/03/04 05:42:56;;;;;;;0.30;0.00;;;;;;;-1.41;39.47;100337.53;4960494;28;20138;-74
2023/03/04 05:45:24;;;;;;;1.00;0.63;;;;;;;-1.43;40.09;100338.34;4958810;28;20047;-73
2023/03/04 05:47:51;;;;;;;1.02;0.00;;;;;;;-1.46;39.85;100343.38;4963759;28;20811;-73
2023/03/04 05:50:19;;;;;;;0.05;0.00;;;;;;;-1.47;40.15;100344.22;4957641;28;20115;-73
2023/03/04 05:52:46;;;;;;;1.98;0.00;;;;;;;-1.49;40.14;100338.19;4960547;28;20054;-73
2023/03/04 05:55:15;;;;;;;1.17;0.30;;;;;;;-1.51;39.78;100350.09;4960448;28;20047;-73
2023/03/04 05:57:42;;;;;;;0.43;0.00;;;;;;;-1.54;39.94;100348.31;4962942;28;20063;-74
2023/03/04 06:00:12;;;;;;;0.10;0.00;;;;;;;-1.55;40.17;100361.97;4961010;28;20470;-74
2023/03/04 06:02:40;;;;;;;0.00;0.00;;;;;;;-1.65;40.29;100316.47;4959099;28;20431;-73
2023/03/04 06:05:08;;;;;;;0.10;0.00;;;;;;;-1.55;40.10;100358.56;4961415;28;20075;-74
2023/03/04 06:07:35;;;;;;;0.03;0.00;;;;;;;-1.60;40.13;100377.22;4957317;28;20049;-74
2023/03/04 06:10:01;;;;;;;0.00;0.00;;;;;;;-1.59;39.90;100368.72;4962040;28;20518;-73
2023/03/04 06:12:30;;;;;;;0.10;0.00;;;;;;;-1.59;40.05;100367.88;4960076;28;20046;-76
2023/03/04 06:14:58;;;;;;;1.17;0.00;;;;;;;-1.59;40.06;100367.88;4963750;28;20418;-74
2023/03/04 06:17:25;;;;;;;0.00;0.00;;;;;;;-1.60;40.05;100382.34;4959384;28;20047;-75
2023/03/04 06:19:52;;;;;;;0.50;0.00;;;;;;;-1.68;40.80;100365.06;4960883;28;20047;-74
2023/03/04 06:22:18;;;;;;;0.20;0.00;;;;;;;-1.75;40.31;100361.50;4964001;28;20051;-74
2023/03/04 06:24:45;;;;;;;0.10;0.00;;;;;;;-1.66;40.18;100376.22;4962901;28;20062;-74
2023/03/04 06:27:15;;;;;;;5.68;0.10;;;;;;;-1.65;40.05;100391.63;4966049;28;20057;-74
2023/03/04 06:29:43;;;;;;;0.00;0.00;;;;;;;-1.66;40.42;100389.88;4961141;28;20047;-74
2023/03/04 06:32:10;;;;;;;0.25;0.00;;;;;;;-1.73;40.71;100388.00;4964308;28;20055;-74
2023/03/04 06:34:37;;;;;;;0.93;0.00;;;;;;;-1.75;40.70;100391.34;4963845;28;20099;-75
2023/03/04 06:37:04;;;;;;;0.10;0.00;;;;;;;-1.70;40.84;100411.13;4961739;28;20061;-75
2023/03/04 06:39:31;;;;;;;1.80;0.08;;;;;;;-1.80;40.44;100388.66;4963058;28;20043;-74
2023/03/04 06:41:58;;;;;;;1.75;0.10;;;;;;;-1.73;40.42;100405.94;4962690;28;20075;-75
2023/03/04 06:44:25;;;;;;;0.10;0.00;;;;;;;-1.77;40.19;100398.13;4965186;28;20057;-75
2023/03/04 06:46:53;;;;;;;0.25;0.00;;;;;;;-1.74;40.42;100416.97;4963842;28;20065;-75
2023/03/04 06:49:20;;;;;;;0.75;0.00;;;;;;;-1.74;40.79;100414.41;4964401;28;20055;-74
2023/03/04 06:51:47;;;;;;;0.00;0.00;;;;;;;-1.73;40.85;100405.06;4959223;28;20077;-74
2023/03/04 06:54:14;;;;;;;0.30;0.00;;;;;;;-1.70;40.87;100425.63;4957033;28;20055;-74
2023/03/04 06:56:41;;;;;;;0.20;0.00;;;;;;;-1.74;40.98;100414.41;4966886;28;20074;-74
2023/03/04 06:59:07;;;;;;;0.00;0.00;;;;;;;-1.69;41.08;100417.97;4964613;28;20130;-74
2023/03/04 07:01:35;;;;;;;0.45;0.00;;;;;;;-1.71;41.24;100421.31;4961978;28;20130;-75
2023/03/04 07:04:03;;;;;;;0.10;0.00;;;;;;;-1.75;41.31;100406.72;4959068;28;20495;-74
2023/03/04 07:06:31;;;;;;;0.13;0.08;;;;;;;-1.67;41.43;100416.31;4957923;28;20499;-75
2023/03/04 07:08:58;;;;;;;0.10;0.00;;;;;;;-1.65;41.50;100413.78;4959618;28;20057;-74
2023/03/04 07:11:26;;;;;;;0.10;0.00;;;;;;;-1.63;41.73;100415.56;4959942;28;20039;-74
2023/03/04 07:13:53;;;;;;;0.10;0.00;;;;;;;-1.61;41.54;100419.03;4962111;28;20065;-74
2023/03/04 07:16:22;;;;;;;3.22;0.00;;;;;;;-1.61;41.67;100424.16;4958241;28;20361;-74
2023/03/04 07:18:49;;;;;;;1.88;0.00;;;;;;;-1.56;41.85;100413.19;4960296;28;20115;-74
2023/03/04 07:21:18;;;;;;;0.60;0.00;;;;;;;-1.54;41.65;100411.50;4959838;28;20047;-74
2023/03/04 07:23:45;;;;;;;0.38;0.00;;;;;;;-1.58;42.00;100393.50;4957470;28;20054;-74
2023/03/04 07:26:12;;;;;;;0.10;0.00;;;;;;;-1.54;41.41;100416.63;4956408;28;20046;-73
2023/03/04 07:28:39;;;;;;;1.60;0.00;;;;;;;-1.52;41.68;100425.22;4963968;28;20055;-72
2023/03/04 07:31:19;;;;;;;11.25;1.80;;;;;;;-1.51;41.24;100426.94;4962392;28;20047;-74
2023/03/04 07:33:46;;;;;;;0.30;0.30;;;;;;;-1.50;41.56;100436.38;4961154;28;20680;-73
2023/03/04 07:36:13;;;;;;;0.10;0.00;;;;;;;-1.47;41.80;100426.22;4962617;28;20066;-73
2023/03/04 07:38:45;;;;;;;1.80;0.00;;;;;;;-1.47;41.98;100418.53;4959601;28;20047;-73
2023/03/04 07:41:12;;;;;;;0.00;0.00;;;;;;;-1.40;42.22;100430.63;4964362;28;20056;-73
2023/03/04 07:43:39;;;;;;;0.40;0.10;;;;;;;-1.36;41.57;100441.00;4965076;28;20051;-73
2023/03/04 07:46:06;;;;;;;0.22;0.00;;;;;;;-1.32;42.10;100435.94;4960176;28;20055;-73
2023/03/04 07:48:32;;;;;;;0.05;0.00;;;;;;;-1.27;41.98;100440.34;4963663;28;20047;-72
2023/03/04 07:51:04;;;;;;;1.67;0.08;;;;;;;-1.22;41.70;100431.09;4965196;28;20411;-73
2023/03/04 07:53:31;;;;;;;0.22;0.00;;;;;;;-1.16;42.41;100450.88;4962865;28;20050;-71
2023/03/04 07:56:00;;;;;;;1.23;0.00;;;;;;;-1.15;42.17;100435.50;4961398;28;20105;-73
2023/03/04 07:58:27;;;;;;;0.00;0.00;;;;;;;-1.07;42.34;100442.53;4961305;28;20043;-71
2023/03/04 08:00:53;;;;;;;0.03;0.00;;;;;;;-1.02;42.22;100443.50;4962627;28;20411;-72
2023/03/04 08:03:20;;;;;;;0.00;0.00;;;;;;;-0.98;42.28;100433.34;4963665;28;20397;-72
2023/03/04 08:05:47;;;;;;;1.27;0.10;;;;;;;-0.97;41.89;100432.53;4964965;28;20074;-72
2023/03/04 08:08:14;;;;;;;0.28;0.05;;;;;;;-0.87;41.99;100423.34;4966782;28;20086;-72
2023/03/04 08:10:41;;;;;;;0.03;0.00;;;;;;;-0.84;42.56;100433.66;4960237;28;20054;-72
2023/03/04 08:13:10;;;;;;;0.20;0.00;;;;;;;-0.77;42.54;100435.53;4959909;28;20082;-71
2023/03/04 08:15:41;;;;;;;0.00;0.00;;;;;;;-0.72;42.30;100453.56;4959977;28;20043;-73
2023/03/04 08:18:08;;;;;;;0.00;0.00;;;;;;;-0.70;42.28;100452.78;4960967;28;20034;-72
2023/03/04 08:20:35;;;;;;;1.77;0.05;;;;;;;-0.68;42.16;100440.00;4959593;28;20043;-72
2023/03/04 08:23:02;;;;;;;1.15;0.10;;;;;;;-0.65;42.08;100441.78;4958879;28;20093;-73
2023/03/04 08:25:29;;;;;;;0.95;0.10;;;;;;;-0.60;42.00;100442.72;4961229;28;20051;-73
2023/03/04 08:27:56;;;;;;;1.00;0.15;;;;;;;-0.58;42.08;100441.91;4965212;28;20043;-73
2023/03/04 08:30:24;;;;;;;1.20;0.10;;;;;;;-0.54;41.89;100440.28;4961244;28;20053;-74
2023/03/04 08:32:51;;;;;;;0.65;0.00;;;;;;;-0.51;41.74;100453.19;4963630;28;20055;-75
2023/03/04 08:35:18;;;;;;;3.45;0.10;;;;;;;-0.54;41.71;100433.47;4956884;28;20047;-74
2023/03/04 08:37:45;;;;;;;0.40;0.00;;;;;;;-0.49;42.30;100451.50;4961385;28;20049;-75
2023/03/04 08:40:14;;;;;;;0.65;0.00;;;;;;;-0.46;41.62;100467.84;4957999;28;20053;-73
2023/03/04 08:42:41;;;;;;;2.10;0.10;;;;;;;-0.46;42.18;100451.56;4958884;28;20126;-74
2023/03/04 08:45:09;;;;;;;2.33;0.55;;;;;;;-0.41;41.88;100460.22;4956558;28;20563;-74
2023/03/04 08:47:38;;;;;;;2.17;0.20;;;;;;;-0.37;41.98;100450.88;4956451;28;20682;-73
2023/03/04 08:50:06;;;;;;;0.98;0.00;;;;;;;-0.35;41.75;100462.91;4956239;28;20103;-74
2023/03/04 08:52:33;;;;;;;0.00;0.00;;;;;;;-0.31;41.80;100462.16;4955929;28;20042;-74
2023/03/04 08:55:01;;;;;;;0.00;0.00;;;;;;;-0.29;42.20;100447.63;4957620;28;20080;-73
2023/03/04 08:57:28;;;;;;;0.93;0.03;;;;;;;-0.27;42.22;100471.66;4957939;28;20058;-75
2023/03/04 08:59:55;;;;;;;1.40;0.00;;;;;;;-0.29;41.93;100457.03;4961473;28;20419;-75
2023/03/04 09:02:22;;;;;;;0.10;0.00;;;;;;;-0.25;41.53;100466.56;4964982;28;20043;-75
2023/03/04 09:04:50;;;;;;;2.83;0.10;;;;;;;-0.22;41.58;100470.88;4961075;28;20047;-74
2023/03/04 09:07:17;;;;;;;0.15;0.00;;;;;;;-0.20;41.50;100469.19;4960055;28;20058;-74
2023/03/04 09:09:44;;;;;;;0.35;0.00;;;;;;;-0.22;42.02;100494.84;4966271;28;20501;-75
2023/03/04 09:12:11;;;;;;;3.60;0.00;;;;;;;-0.17;41.96;100505.19;4961833;28;20059;-75
2023/03/04 09:14:38;;;;;;;0.93;0.10;;;;;;;-0.17;41.87;100497.50;4962839;28;20594;-74
2023/03/04 09:17:05;;;;;;;1.95;0.00;;;;;;;-0.17;41.45;100479.53;4965001;28;20415;-76
2023/03/04 09:19:32;;;;;;;0.68;0.03;;;;;;;-0.20;41.94;100492.31;4963885;28;20055;-74
2023/03/04 09:22:01;;;;;;;1.98;0.20;;;;;;;-0.16;42.06;100486.41;4960637;28;20049;-76
2023/03/04 09:24:28;;;;;;;0.60;0.00;;;;;;;-0.16;41.75;100496.69;4962897;28;20059;-75
2023/03/04 09:26:55;;;;;;;0.20;0.00;;;;;;;-0.16;41.40;100502.69;4959300;28;20051;-74
2023/03/04 09:29:23;;;;;;;0.85;0.05;;;;;;;-0.17;41.42;100500.06;4960110;28;20142;-74
2023/03/04 09:31:50;;;;;;;0.32;0.00;;;;;;;-0.20;41.69;100489.72;4963694;28;20047;-75
2023/03/04 09:34:17;;;;;;;2.35;0.22;;;;;;;-0.15;41.87;100504.41;4962839;28;20047;-75
2023/03/04 09:36:44;;;;;;;0.52;0.00;;;;;;;-0.13;41.98;100507.00;4960941;28;20057;-75
2023/03/04 09:39:13;;;;;;;0.43;0.32;;;;;;;-0.11;42.32;100507.91;4962824;28;20140;-75
2023/03/04 09:41:43;;;;;;;0.45;0.00;;;;;;;-0.12;42.25;100508.72;4958607;28;20061;-75
2023/03/04 09:44:17;;;;;;;4.20;0.03;;;;;;;-0.15;42.77;100498.41;4962434;28;20419;-75
2023/03/04 09:46:47;;;;;;;0.20;0.00;;;;;;;-0.12;42.13;100503.59;4961657;28;20039;-74
2023/03/04 09:49:16;;;;;;;0.08;0.00;;;;;;;-0.10;42.92;100507.06;4958441;28;20061;-74
2023/03/04 09:51:57;;;;;;;3.40;0.05;;;;;;;-0.03;42.68;100498.63;4961439;28;20050;-75
2023/03/04 09:54:56;;;;;;;5.10;1.52;;;;;;;0.12;42.38;100496.41;4963255;28;20058;-75
2023/03/04 09:57:39;;;;;;;0.95;0.10;;;;;;;0.32;42.69;100488.22;4958766;28;20038;-75
2023/03/04 10:00:18;;;;;;;3.65;0.22;;;;;;;0.48;43.17;100492.75;4963099;28;20061;-74
2023/03/04 10:02:58;;;;;;;2.90;0.10;;;;;;;0.62;42.27;100488.72;4965944;28;20054;-74
2023/03/04 10:05:28;;;;;;;1.67;0.20;;;;;;;0.69;41.90;100479.44;4966075;28;20059;-74
2023/03/04 10:07:59;;;;;;;0.00;0.00;;;;;;;0.60;41.90;100472.44;4962619;28;20054;-74
2023/03/04 10:10:31;;;;;;;2.35;0.00;;;;;;;0.57;41.23;100466.34;4965464;28;20054;-75
2023/03/04 10:13:01;;;;;;;3.50;0.10;;;;;;;0.56;42.10;100474.91;4967981;28;20057;-74
2023/03/04 10:15:35;;;;;;;0.13;0.05;;;;;;;0.59;41.57;100493.81;4966542;28;20483;-76
2023/03/04 10:18:11;;;;;;;6.03;0.10;;;;;;;0.58;42.48;100524.66;4968218;28;20051;-76
2023/03/04 10:20:50;;;;;;;0.00;0.00;;;;;;;0.56;41.69;100505.75;4966190;28;20079;-75
2023/03/04 10:23:22;;;;;;;0.85;0.10;;;;;;;0.54;42.22;100498.03;4965189;28;20058;-76
2023/03/04 10:25:53;;;;;;;0.25;0.00;;;;;;;0.54;42.24;100505.75;4966888;28;20050;-75
2023/03/04 10:28:25;;;;;;;2.08;0.00;;;;;;;0.55;42.40;100497.19;4969764;28;20051;-75
2023/03/04 10:30:58;;;;;;;1.13;0.05;;;;;;;0.52;42.55;100484.28;4964689;28;20058;-75
2023/03/04 10:33:29;;;;;;;0.10;0.00;;;;;;;0.58;42.31;100501.53;4965939;28;20051;-75
2023/03/04 10:36:01;;;;;;;3.30;0.20;;;;;;;0.58;42.86;100492.09;4963125;28;20495;-74
2023/03/04 10:38:31;;;;;;;0.10;0.00;;;;;;;0.62;43.00;100495.56;4962528;28;20072;-74
2023/03/04 10:40:59;;;;;;;0.52;0.10;;;;;;;0.64;42.52;100493.91;4965961;28;20055;-75
2023/03/04 10:43:28;;;;;;;2.30;0.52;;;;;;;0.66;42.18;100500.81;4965364;28;20529;-74
2023/03/04 10:45:57;;;;;;;1.98;0.55;;;;;;;0.66;42.87;100505.94;4965337;28;20047;-74
2023/03/04 10:48:26;;;;;;;1.30;0.00;;;;;;;0.69;43.22;100501.72;4964567;28;20081;-74
2023/03/04 10:50:54;;;;;;;3.42;0.00;;;;;;;0.66;42.79;100497.38;4962743;28;20499;-75
2023/03/04 10:53:32;;;;;;;2.53;0.10;;;;;;;0.67;43.22;100499.97;4968030;28;20122;-74
2023/03/04 10:55:59;;;;;;;1.75;0.00;;;;;;;0.74;43.06;100498.38;4965685;28;20042;-74
2023/03/04 10:58:28;;;;;;;0.90;0.10;;;;;;;0.74;42.73;100482.97;4964109;28;20050;-75
2023/03/04 11:01:06;;;;;;;0.45;0.00;;;;;;;0.79;43.31;100503.59;4962323;28;20097;-74
2023/03/04 11:03:37;;;;;;;0.82;0.00;;;;;;;0.67;43.11;100488.81;4964040;28;20473;-74
2023/03/04 11:06:11;;;;;;;2.72;0.10;;;;;;;0.82;42.55;100506.19;4963453;28;20079;-74
2023/03/04 11:08:40;;;;;;;0.60;0.10;;;;;;;0.85;43.35;100508.81;4960961;28;20055;-74
2023/03/04 11:11:23;;;;;;;1.75;0.00;;;;;;;0.89;42.35;100500.34;4961777;28;20649;-75
2023/03/04 11:13:56;;;;;;;7.65;0.20;;;;;;;0.91;42.90;100508.91;4967251;28;20051;-75
2023/03/04 11:16:28;;;;;;;0.80;0.10;;;;;;;0.94;42.75;100506.44;4964711;28;20518;-75
2023/03/04 11:19:00;;;;;;;0.40;0.00;;;;;;;0.97;42.67;100508.16;4960187;28;20129;-75
2023/03/04 11:21:31;;;;;;;0.43;0.15;;;;;;;0.95;43.27;100503.00;4961044;28;20039;-74
2023/03/04 11:24:01;;;;;;;0.63;0.00;;;;;;;0.96;43.24;100502.16;4960829;28;20045;-75
2023/03/04 11:26:34;;;;;;;2.53;0.10;;;;;;;1.01;43.18;100508.25;4961168;28;20074;-74
2023/03/04 11:29:12;;;;;;;3.08;0.20;;;;;;;1.04;43.38;100505.72;4960858;28;20061;-74
2023/03/04 11:31:46;;;;;;;1.35;0.45;;;;;;;1.07;42.78;100505.75;4961696;28;20054;-74
2023/03/04 11:34:19;;;;;;;3.00;0.43;;;;;;;1.06;43.31;100493.75;4959643;28;20078;-73
2023/03/04 11:36:56;;;;;;;1.67;0.00;;;;;;;1.10;42.91;100508.38;4960652;28;20113;-73